createdAt,value
2023-08-12T00:00:22.815Z,2.97
2023-08-12T00:02:50.050Z,2.80
2023-08-12T00:05:17.049Z,2.60
2023-08-12T00:07:44.134Z,2.80
2023-08-12T00:10:12.718Z,2.50
2023-08-12T00:12:40.732Z,2.70
2023-08-12T00:15:09.450Z,2.67
2023-08-12T00:17:42.512Z,2.62
2023-08-12T00:20:12.481Z,2.95
2023-08-12T00:22:40.010Z,2.78
2023-08-12T00:25:07.741Z,2.87
2023-08-12T00:27:35.051Z,2.55
2023-08-12T00:30:02.703Z,2.60
2023-08-12T00:32:29.652Z,2.72
2023-08-12T00:34:56.715Z,2.83
2023-08-12T00:37:24.111Z,2.80
2023-08-12T00:39:51.434Z,2.70
2023-08-12T00:42:18.301Z,2.55
2023-08-12T00:44:45.284Z,2.50
2023-08-12T00:47:12.472Z,2.60
2023-08-12T00:49:41.244Z,2.40
2023-08-12T00:52:08.156Z,2.72
2023-08-12T00:54:35.135Z,2.60
2023-08-12T00:57:02.151Z,3.17
2023-08-12T00:59:29.948Z,2.90
2023-08-12T01:01:57.080Z,2.97
2023-08-12T01:04:23.949Z,3.08
2023-08-12T01:06:50.817Z,2.95
2023-08-12T01:09:17.908Z,3.30
2023-08-12T01:12:03.324Z,3.17
2023-08-12T01:14:50.864Z,2.80
2023-08-12T01:17:18.550Z,2.45
2023-08-12T01:19:48.796Z,2.65
2023-08-12T01:22:17.796Z,2.80
2023-08-12T01:24:46.030Z,2.90
2023-08-12T01:27:14.605Z,3.00
2023-08-12T01:29:47.729Z,3.00
2023-08-12T01:32:54.330Z,3.00
2023-08-12T01:35:26.282Z,2.67
2023-08-12T01:37:55.120Z,3.20
2023-08-12T01:40:22.779Z,3.00
2023-08-12T01:42:49.799Z,2.83
2023-08-12T01:45:17.009Z,2.87
2023-08-12T01:47:44.973Z,3.00
2023-08-12T01:50:12.076Z,2.58
2023-08-12T01:52:39.012Z,2.87
2023-08-12T01:55:06.096Z,2.80
2023-08-12T01:57:32.996Z,2.65
2023-08-12T02:00:00.095Z,2.47
2023-08-12T02:02:27.046Z,2.87
2023-08-12T02:04:53.944Z,2.70
2023-08-12T02:07:20.851Z,2.42
2023-08-12T02:09:47.956Z,2.75
2023-08-12T02:12:14.893Z,2.83
2023-08-12T02:14:41.700Z,2.87
2023-08-12T02:17:08.710Z,2.50
2023-08-12T02:19:36.040Z,3.17
2023-08-12T02:22:04.773Z,2.87
2023-08-12T02:24:31.925Z,2.97
2023-08-12T02:26:58.839Z,2.92
2023-08-12T02:29:25.744Z,2.80
2023-08-12T02:31:52.731Z,3.00
2023-08-12T02:34:19.734Z,2.90
2023-08-12T02:36:46.561Z,3.03
2023-08-12T02:39:13.686Z,2.87
2023-08-12T02:41:40.569Z,2.63
2023-08-12T02:44:07.488Z,2.85
2023-08-12T02:46:34.405Z,3.10
2023-08-12T02:49:01.332Z,3.00
2023-08-12T02:51:28.179Z,2.85
2023-08-12T02:53:55.077Z,2.83
2023-08-12T02:56:21.938Z,2.40
2023-08-12T02:58:49.215Z,2.87
2023-08-12T03:01:17.200Z,2.67
2023-08-12T03:03:44.259Z,3.05
2023-08-12T03:06:11.398Z,2.90
2023-08-12T03:08:38.295Z,2.85
2023-08-12T03:11:05.226Z,3.00
2023-08-12T03:13:32.352Z,2.90
2023-08-12T03:15:59.214Z,2.60
2023-08-12T03:18:26.197Z,2.70
2023-08-12T03:20:53.142Z,2.45
2023-08-12T03:23:20.009Z,2.65
2023-08-12T03:25:48.720Z,2.58
2023-08-12T03:28:15.669Z,2.47
2023-08-12T03:30:42.525Z,2.57
2023-08-12T03:33:09.443Z,2.50
2023-08-12T03:35:36.566Z,2.70
2023-08-12T03:38:03.479Z,2.40
2023-08-12T03:40:30.437Z,2.50
2023-08-12T03:42:57.274Z,2.87
2023-08-12T03:45:24.127Z,3.08
2023-08-12T03:47:51.009Z,2.60
2023-08-12T03:50:17.853Z,2.60
2023-08-12T03:52:44.681Z,2.50
2023-08-12T03:55:11.812Z,2.97
2023-08-12T03:57:38.620Z,2.67
2023-08-12T04:00:08.236Z,2.62
2023-08-12T04:02:37.403Z,3.00
2023-08-12T04:05:04.507Z,2.62
2023-08-12T04:07:32.859Z,2.70
2023-08-12T04:09:59.800Z,2.97
2023-08-12T04:12:26.778Z,2.92
2023-08-12T04:14:53.626Z,2.80
2023-08-12T04:17:20.516Z,2.87
2023-08-12T04:19:47.706Z,2.80
2023-08-12T04:22:14.504Z,2.47
2023-08-12T04:24:41.392Z,2.40
2023-08-12T04:27:08.590Z,2.80
2023-08-12T04:29:36.855Z,2.60
2023-08-12T04:32:03.816Z,2.40
2023-08-12T04:34:31.186Z,2.37
2023-08-12T04:36:58.266Z,2.28
2023-08-12T04:39:25.234Z,2.37
2023-08-12T04:41:52.123Z,2.20
2023-08-12T04:44:18.941Z,2.53
2023-08-12T04:46:45.954Z,2.30
2023-08-12T04:49:12.832Z,2.28
2023-08-12T04:51:39.659Z,2.20
2023-08-12T04:54:06.614Z,2.42
2023-08-12T04:56:33.463Z,2.23
2023-08-12T04:59:00.343Z,2.83
2023-08-12T05:01:27.378Z,2.60
2023-08-12T05:03:54.254Z,2.25
2023-08-12T05:06:21.156Z,2.20
2023-08-12T05:08:48.032Z,1.93
2023-08-12T05:11:14.860Z,2.50
2023-08-12T05:13:41.695Z,2.20
2023-08-12T05:16:08.569Z,2.17
2023-08-12T05:18:35.501Z,1.98
2023-08-12T05:21:02.344Z,1.80
2023-08-12T05:23:29.267Z,2.00
2023-08-12T05:28:40.616Z,2.00
2023-08-12T05:31:07.495Z,1.85
2023-08-12T05:33:34.529Z,1.90
2023-08-12T05:36:01.855Z,2.00
2023-08-12T05:38:28.678Z,2.00
2023-08-12T05:40:55.525Z,1.70
2023-08-12T05:43:22.346Z,1.90
2023-08-12T05:45:49.575Z,1.83
2023-08-12T05:48:16.449Z,2.10
2023-08-12T05:50:44.187Z,1.70
2023-08-12T05:53:11.081Z,1.70
2023-08-12T05:55:38.036Z,1.95
2023-08-12T05:58:05.935Z,1.93
2023-08-12T06:00:32.825Z,1.67
2023-08-12T06:02:59.658Z,1.85
2023-08-12T06:05:26.502Z,1.70
2023-08-12T06:07:53.353Z,1.85
2023-08-12T06:10:20.265Z,1.77
2023-08-12T06:12:47.115Z,1.50
2023-08-12T06:15:13.973Z,1.67
2023-08-12T06:17:40.865Z,1.85
2023-08-12T06:20:08.320Z,1.70
2023-08-12T06:22:35.260Z,1.90
2023-08-12T06:25:02.176Z,1.70
2023-08-12T06:27:29.222Z,1.73
2023-08-12T06:29:56.072Z,1.67
2023-08-12T06:32:22.926Z,1.60
2023-08-12T06:34:49.920Z,1.63
2023-08-12T06:37:16.867Z,1.70
2023-08-12T06:39:43.821Z,1.65
2023-08-12T06:42:11.006Z,1.60
2023-08-12T06:44:38.225Z,1.60
2023-08-12T06:47:05.142Z,2.00
2023-08-12T06:49:32.095Z,1.62
2023-08-12T06:51:58.979Z,1.70
2023-08-12T06:54:25.919Z,1.60
2023-08-12T06:56:52.738Z,1.70
2023-08-12T06:59:19.655Z,1.77
2023-08-12T07:01:46.655Z,1.52
2023-08-12T07:04:13.618Z,1.52
2023-08-12T07:06:40.572Z,1.70
2023-08-12T07:09:07.441Z,1.80
2023-08-12T07:11:34.636Z,1.40
2023-08-12T07:14:01.613Z,1.48
2023-08-12T07:16:28.499Z,1.60
2023-08-12T07:18:55.398Z,1.70
2023-08-12T07:21:22.323Z,1.45
2023-08-12T07:24:02.001Z,1.67
2023-08-12T07:26:30.552Z,1.62
2023-08-12T07:28:57.714Z,1.62
2023-08-12T07:31:24.661Z,2.00
2023-08-12T07:33:53.074Z,1.30
2023-08-12T07:36:20.053Z,1.47
2023-08-12T07:38:46.936Z,1.45
2023-08-12T07:41:13.785Z,1.60
2023-08-12T07:43:40.654Z,1.35
2023-08-12T07:46:09.965Z,1.80
2023-08-12T07:48:38.518Z,1.87
2023-08-12T07:51:05.436Z,1.70
2023-08-12T07:53:32.312Z,1.50
2023-08-12T07:55:59.097Z,1.80
2023-08-12T07:58:25.981Z,1.80
2023-08-12T08:00:56.109Z,1.60
2023-08-12T08:03:23.055Z,1.90
2023-08-12T08:05:49.956Z,1.75
2023-08-12T08:08:16.883Z,1.90
2023-08-12T08:10:44.581Z,1.77
2023-08-12T08:13:11.392Z,1.80
2023-08-12T08:15:38.878Z,1.70
2023-08-12T08:18:08.244Z,1.90
2023-08-12T08:20:35.361Z,1.55
2023-08-12T08:23:02.381Z,2.03
2023-08-12T08:25:29.180Z,1.47
2023-08-12T08:27:56.045Z,1.50
2023-08-12T08:30:24.048Z,1.37
2023-08-12T08:32:50.975Z,1.60
2023-08-12T08:35:18.190Z,1.50
2023-08-12T08:37:45.010Z,1.50
2023-08-12T08:40:13.174Z,1.52
2023-08-12T08:42:42.081Z,1.12
2023-08-12T08:45:13.923Z,1.55
2023-08-12T08:47:42.766Z,1.40
2023-08-12T08:50:11.198Z,1.50
2023-08-12T08:52:39.131Z,1.40
2023-08-12T08:55:08.210Z,1.55
2023-08-12T09:00:16.437Z,1.30
2023-08-12T09:02:47.366Z,1.17
2023-08-12T09:05:15.841Z,1.25
2023-08-12T09:07:43.540Z,1.45
2023-08-12T09:10:13.977Z,1.35
2023-08-12T09:12:43.338Z,1.45
2023-08-12T09:15:10.781Z,1.30
2023-08-12T09:17:38.354Z,1.62
2023-08-12T09:20:13.544Z,1.55
2023-08-12T09:22:44.417Z,1.50
2023-08-12T09:25:12.237Z,1.70
2023-08-12T09:27:39.759Z,1.50
2023-08-12T09:30:07.935Z,1.60
2023-08-12T09:32:39.878Z,1.92
2023-08-12T09:35:07.657Z,1.58
2023-08-12T09:37:34.543Z,1.50
2023-08-12T09:40:02.137Z,1.50
2023-08-12T09:42:29.285Z,1.67
2023-08-12T09:44:57.761Z,1.50
2023-08-12T09:47:28.200Z,1.67
2023-08-12T09:49:56.197Z,1.70
2023-08-12T09:52:23.469Z,1.60
2023-08-12T09:54:52.136Z,1.70
2023-08-12T09:57:21.436Z,1.80
2023-08-12T09:59:50.316Z,1.50
2023-08-12T10:02:21.067Z,2.00
2023-08-12T10:04:52.039Z,1.87
2023-08-12T10:07:20.324Z,1.52
2023-08-12T10:09:47.852Z,1.83
2023-08-12T10:12:19.061Z,1.65
2023-08-12T10:14:48.540Z,1.75
2023-08-12T10:17:21.476Z,1.80
2023-08-12T10:19:59.210Z,1.70
2023-08-12T10:22:30.655Z,1.73
2023-08-12T10:25:03.495Z,1.75
2023-08-12T10:27:30.701Z,1.77
2023-08-12T10:29:58.786Z,1.63
2023-08-12T10:32:30.788Z,1.65
2023-08-12T10:34:58.753Z,1.70
2023-08-12T10:37:28.873Z,1.80
2023-08-12T10:39:55.930Z,1.80
2023-08-12T10:42:48.068Z,2.10
2023-08-12T10:45:17.372Z,1.85
2023-08-12T10:48:05.571Z,1.77
2023-08-12T10:50:33.109Z,1.60
2023-08-12T10:52:59.906Z,1.70
2023-08-12T10:55:28.446Z,1.90
2023-08-12T10:57:59.102Z,1.95
2023-08-12T11:00:30.288Z,1.98
2023-08-12T11:02:58.413Z,1.90
2023-08-12T11:05:36.925Z,1.67
2023-08-12T11:08:07.141Z,1.63
2023-08-12T11:10:35.790Z,1.67
2023-08-12T11:13:04.420Z,1.85
2023-08-12T11:15:38.749Z,1.60
2023-08-12T11:18:06.674Z,1.75
2023-08-12T11:20:34.649Z,2.00
2023-08-12T11:23:02.517Z,2.00
2023-08-12T11:25:31.142Z,2.00
2023-08-12T11:27:58.616Z,2.30
2023-08-12T11:30:26.173Z,2.00
2023-08-12T11:32:54.902Z,2.10
2023-08-12T11:35:23.583Z,1.73
2023-08-12T11:37:59.530Z,1.70
2023-08-12T11:40:28.616Z,1.73
2023-08-12T11:42:56.133Z,1.70
2023-08-12T11:45:27.410Z,1.80
2023-08-12T11:47:54.939Z,2.00
2023-08-12T11:50:24.949Z,1.87
2023-08-12T11:52:53.252Z,1.98
2023-08-12T11:55:20.398Z,1.73
2023-08-12T11:57:47.551Z,1.90
2023-08-12T12:00:16.606Z,2.05
2023-08-12T12:02:52.312Z,2.10
2023-08-12T12:05:24.593Z,1.85
2023-08-12T12:07:52.862Z,2.10
2023-08-12T12:10:23.260Z,1.60
2023-08-12T12:12:50.443Z,2.05
2023-08-12T12:15:17.460Z,1.55
2023-08-12T12:17:47.274Z,1.73
2023-08-12T12:20:15.559Z,1.83
2023-08-12T12:22:47.268Z,1.60
2023-08-12T12:25:15.832Z,1.90
2023-08-12T12:27:44.131Z,1.77
2023-08-12T12:30:13.032Z,1.90
2023-08-12T12:32:40.993Z,1.75
2023-08-12T12:35:08.720Z,1.70
2023-08-12T12:37:36.464Z,1.95
2023-08-12T12:40:04.442Z,1.70
2023-08-12T12:42:32.067Z,1.67
2023-08-12T12:44:59.049Z,1.80
2023-08-12T12:47:26.001Z,1.80
2023-08-12T12:49:52.843Z,1.80
2023-08-12T12:52:19.702Z,2.00
2023-08-12T12:54:46.582Z,1.77
2023-08-12T12:57:13.383Z,1.80
2023-08-12T12:59:40.344Z,1.90
2023-08-12T13:02:07.262Z,2.00
2023-08-12T13:04:34.075Z,2.00
2023-08-12T13:07:01.902Z,1.40
2023-08-12T13:09:28.817Z,2.20
2023-08-12T13:11:58.290Z,1.90
2023-08-12T13:14:25.652Z,1.85
2023-08-12T13:16:52.629Z,2.10
2023-08-12T13:19:19.524Z,2.20
2023-08-12T13:21:46.421Z,2.00
2023-08-12T13:24:13.459Z,2.00
2023-08-12T13:26:40.295Z,1.80
2023-08-12T13:29:07.405Z,1.73
2023-08-12T13:31:34.490Z,1.70
2023-08-12T13:34:01.596Z,2.00
2023-08-12T13:36:28.500Z,1.80
2023-08-12T13:38:55.459Z,1.90
2023-08-12T13:41:23.076Z,2.10
2023-08-12T13:43:49.976Z,1.80
2023-08-12T13:46:16.906Z,1.98
2023-08-12T13:48:43.780Z,1.90
2023-08-12T13:51:10.882Z,1.90
2023-08-12T13:53:37.758Z,1.70
2023-08-12T13:56:05.164Z,1.80
2023-08-12T13:58:32.124Z,2.28
2023-08-12T14:00:59.045Z,1.67
2023-08-12T14:03:26.085Z,2.03
2023-08-12T14:05:53.223Z,2.03
2023-08-12T14:08:20.261Z,1.60
2023-08-12T14:10:48.713Z,1.65
2023-08-12T14:13:15.588Z,1.80
2023-08-12T14:15:42.536Z,1.65
2023-08-12T14:18:09.480Z,1.95
2023-08-12T14:20:36.728Z,1.75
2023-08-12T14:23:03.636Z,2.00
2023-08-12T14:25:31.211Z,2.10
2023-08-12T14:27:58.147Z,1.85
2023-08-12T14:30:29.156Z,1.67
2023-08-12T14:32:56.108Z,1.92
2023-08-12T14:35:23.140Z,2.00
2023-08-12T14:37:50.109Z,1.77
2023-08-12T14:40:17.072Z,1.80
2023-08-12T14:42:44.012Z,2.05
2023-08-12T14:45:11.637Z,1.70
2023-08-12T14:47:38.564Z,1.70
2023-08-12T14:50:05.910Z,2.10
2023-08-12T14:52:34.777Z,2.00
2023-08-12T14:55:01.911Z,2.15
2023-08-12T14:57:28.859Z,2.08
2023-08-12T14:59:55.710Z,1.80
2023-08-12T15:02:25.741Z,1.80
2023-08-12T15:04:52.776Z,1.80
2023-08-12T15:07:21.313Z,1.80
2023-08-12T15:09:48.715Z,1.52
2023-08-12T15:12:15.611Z,1.90
2023-08-12T15:14:42.541Z,1.80
2023-08-12T15:17:09.491Z,1.77
2023-08-12T15:19:36.401Z,1.70
2023-08-12T15:22:03.336Z,1.73
2023-08-12T15:24:30.245Z,1.85
2023-08-12T15:26:57.108Z,1.63
2023-08-12T15:29:24.051Z,1.70
2023-08-12T15:31:51.412Z,1.77
2023-08-12T15:34:18.530Z,2.00
2023-08-12T15:36:45.739Z,1.75
2023-08-12T15:39:12.976Z,2.07
2023-08-12T15:41:44.736Z,2.00
2023-08-12T15:44:12.775Z,1.90
2023-08-12T15:46:41.019Z,1.70
2023-08-12T15:49:11.814Z,1.75
2023-08-12T15:51:39.853Z,1.80
2023-08-12T15:54:07.540Z,2.00
2023-08-12T15:56:37.601Z,1.95
2023-08-12T15:59:06.044Z,1.67
2023-08-12T16:01:33.824Z,1.70
2023-08-12T16:04:01.138Z,1.87
2023-08-12T16:06:28.167Z,1.60
2023-08-12T16:09:14.956Z,1.33
2023-08-12T16:11:42.020Z,1.58
2023-08-12T16:14:08.931Z,1.58
2023-08-12T16:16:35.828Z,1.53
2023-08-12T16:19:03.479Z,1.52
2023-08-12T16:21:30.832Z,1.62
2023-08-12T16:23:57.817Z,1.52
2023-08-12T16:26:24.786Z,1.60
2023-08-12T16:28:51.809Z,1.60
2023-08-12T16:31:18.903Z,1.52
2023-08-12T16:33:45.866Z,1.40
2023-08-12T16:36:12.721Z,1.58
2023-08-12T16:38:40.067Z,1.35
2023-08-12T16:41:06.971Z,1.33
2023-08-12T16:43:33.949Z,1.20
2023-08-12T16:46:00.928Z,1.50
2023-08-12T16:48:27.839Z,1.27
2023-08-12T16:50:54.682Z,1.45
2023-08-12T16:53:21.839Z,1.50
2023-08-12T16:55:49.066Z,1.70
2023-08-12T16:58:15.875Z,1.65
2023-08-12T17:00:43.778Z,1.75
2023-08-12T17:03:10.889Z,1.40
2023-08-12T17:05:37.740Z,2.00
2023-08-12T17:08:04.894Z,1.65
2023-08-12T17:10:31.840Z,1.30
2023-08-12T17:12:58.721Z,1.30
2023-08-12T17:15:25.910Z,1.25
2023-08-12T17:17:52.804Z,1.33
2023-08-12T17:20:19.789Z,1.62
2023-08-12T17:22:46.638Z,1.52
2023-08-12T17:25:13.590Z,1.70
2023-08-12T17:27:40.517Z,1.90
2023-08-12T17:30:08.004Z,1.50
2023-08-12T17:32:35.358Z,1.50
2023-08-12T17:35:02.277Z,1.77
2023-08-12T17:37:29.219Z,1.70
2023-08-12T17:39:56.138Z,1.50
2023-08-12T17:42:23.037Z,1.70
2023-08-12T17:44:49.885Z,1.50
2023-08-12T17:47:17.803Z,1.62
2023-08-12T17:49:44.831Z,1.50
2023-08-12T17:52:12.241Z,1.92
2023-08-12T17:54:39.398Z,2.00
2023-08-12T17:57:06.344Z,1.90
2023-08-12T17:59:33.678Z,1.90
2023-08-12T18:02:00.690Z,1.90
2023-08-12T18:04:27.639Z,1.70
2023-08-12T18:06:54.506Z,1.77
2023-08-12T18:09:21.721Z,2.00
2023-08-12T18:11:48.627Z,2.12
2023-08-12T18:14:15.841Z,1.83
2023-08-12T18:16:42.960Z,2.00
2023-08-12T18:19:09.927Z,2.17
2023-08-12T18:21:36.802Z,2.60
2023-08-12T18:24:03.815Z,2.40
2023-08-12T18:26:30.860Z,2.33
2023-08-12T18:28:57.870Z,2.40
2023-08-12T18:31:24.813Z,2.30
2023-08-12T18:33:51.985Z,2.15
2023-08-12T18:36:18.893Z,2.42
2023-08-12T18:38:47.048Z,4.00
2023-08-12T18:41:14.040Z,2.85
2023-08-12T18:43:40.937Z,2.90
2023-08-12T18:46:07.994Z,3.10
2023-08-12T18:48:34.931Z,3.30
2023-08-12T18:51:01.996Z,3.10
2023-08-12T18:53:30.758Z,3.10
2023-08-12T18:55:58.081Z,3.07
2023-08-12T18:58:25.288Z,3.20
2023-08-12T19:00:52.248Z,3.08
2023-08-12T19:03:19.281Z,3.20
2023-08-12T19:05:48.299Z,3.00
2023-08-12T19:08:16.964Z,3.60
2023-08-12T19:10:45.316Z,3.47
2023-08-12T19:13:12.298Z,3.40
2023-08-12T19:15:39.567Z,2.90
2023-08-12T19:18:06.668Z,3.53
2023-08-12T19:20:33.650Z,2.67
2023-08-12T19:23:00.537Z,3.40
2023-08-12T19:25:27.588Z,3.12
2023-08-12T19:27:54.613Z,3.50
2023-08-12T19:30:22.381Z,3.35
2023-08-12T19:32:55.985Z,3.10
2023-08-12T19:35:23.350Z,3.47
2023-08-12T19:37:52.964Z,3.58
2023-08-12T19:40:20.459Z,3.75
2023-08-12T19:42:47.926Z,3.50
2023-08-12T19:45:15.456Z,3.57
2023-08-12T19:47:44.322Z,3.78
2023-08-12T19:50:13.525Z,3.72
2023-08-12T19:52:40.565Z,3.45
2023-08-12T19:55:09.277Z,3.58
2023-08-12T19:57:36.680Z,3.00
2023-08-12T20:00:05.974Z,3.47
2023-08-12T20:02:39.372Z,3.78
2023-08-12T20:05:16.481Z,3.20
2023-08-12T20:07:46.713Z,3.25
2023-08-12T20:10:19.144Z,3.57
2023-08-12T20:12:47.569Z,3.30
2023-08-12T20:15:14.730Z,3.55
2023-08-12T20:17:43.056Z,3.50
2023-08-12T20:20:18.321Z,3.60
2023-08-12T20:22:59.672Z,3.20
2023-08-12T20:25:31.095Z,3.30
2023-08-12T20:27:59.458Z,3.65
2023-08-12T20:30:27.186Z,3.60
2023-08-12T20:32:55.726Z,3.53
2023-08-12T20:35:23.970Z,3.90
2023-08-12T20:37:51.289Z,3.70
2023-08-12T20:40:19.713Z,3.85
2023-08-12T20:42:47.316Z,3.97
2023-08-12T20:45:14.895Z,3.72
2023-08-12T20:47:43.322Z,4.10
2023-08-12T20:50:11.056Z,4.37
2023-08-12T20:52:37.986Z,3.53
2023-08-12T20:55:05.532Z,3.85
2023-08-12T20:57:32.697Z,4.40
2023-08-12T21:00:02.711Z,3.80
2023-08-12T21:02:30.704Z,3.87
2023-08-12T21:04:57.981Z,3.70
2023-08-12T21:07:24.972Z,3.80
2023-08-12T21:09:51.858Z,4.57
2023-08-12T21:12:18.738Z,4.47
2023-08-12T21:14:45.574Z,4.22
2023-08-12T21:17:12.593Z,4.28
2023-08-12T21:19:39.597Z,3.72
2023-08-12T21:22:06.587Z,4.43
2023-08-12T21:24:33.517Z,3.97
2023-08-12T21:27:00.487Z,3.92
2023-08-12T21:29:27.441Z,3.97
2023-08-12T21:31:54.429Z,3.65
2023-08-12T21:34:21.468Z,3.87
2023-08-12T21:36:48.323Z,3.70
2023-08-12T21:39:15.189Z,3.60
2023-08-12T21:41:42.172Z,3.97
2023-08-12T21:44:09.218Z,3.20
2023-08-12T21:46:36.090Z,3.58
2023-08-12T21:49:03.076Z,3.23
2023-08-12T21:51:29.933Z,3.85
2023-08-12T21:53:56.880Z,4.10
2023-08-12T21:56:23.724Z,3.90
2023-08-12T21:58:50.572Z,3.80
2023-08-12T22:01:17.461Z,3.50
2023-08-12T22:03:44.492Z,3.72
2023-08-12T22:06:12.022Z,3.60
2023-08-12T22:08:39.038Z,3.72
2023-08-12T22:11:06.829Z,3.40
2023-08-12T22:13:33.825Z,3.23
2023-08-12T22:16:00.825Z,3.30
2023-08-12T22:18:27.775Z,3.72
2023-08-12T22:20:55.368Z,3.30
2023-08-12T22:23:23.524Z,3.60
2023-08-12T22:25:51.545Z,3.37
2023-08-12T22:28:21.549Z,3.87
2023-08-12T22:30:49.082Z,3.67
2023-08-12T22:33:16.465Z,3.28
2023-08-12T22:35:43.634Z,3.40
2023-08-12T22:38:10.869Z,3.20
2023-08-12T22:40:37.805Z,3.10
2023-08-12T22:43:04.845Z,3.12
2023-08-12T22:45:34.770Z,3.20
2023-08-12T22:48:01.654Z,3.17
2023-08-12T22:50:28.582Z,3.70
2023-08-12T22:52:55.425Z,3.15
2023-08-12T22:55:22.354Z,3.20
2023-08-12T22:57:49.556Z,2.95
2023-08-12T23:00:16.597Z,2.95
2023-08-12T23:02:43.949Z,3.20
2023-08-12T23:05:11.448Z,2.97
2023-08-12T23:07:38.451Z,3.40
2023-08-12T23:10:06.163Z,3.12
2023-08-12T23:12:33.668Z,3.58
2023-08-12T23:15:00.648Z,3.20
2023-08-12T23:17:27.588Z,3.58
2023-08-12T23:19:54.404Z,3.67
2023-08-12T23:22:21.304Z,3.35
2023-08-12T23:24:48.177Z,3.35
2023-08-12T23:27:15.101Z,3.53
2023-08-12T23:29:41.962Z,3.62
2023-08-12T23:32:09.323Z,3.80
2023-08-12T23:34:36.201Z,3.50
2023-08-12T23:37:03.287Z,3.70
2023-08-12T23:39:31.874Z,3.70
2023-08-12T23:41:59.132Z,3.70
2023-08-12T23:44:26.061Z,3.30
2023-08-12T23:46:53.039Z,3.42
2023-08-12T23:49:20.193Z,3.58
2023-08-12T23:51:48.767Z,3.33
2023-08-12T23:54:15.698Z,3.85
2023-08-12T23:56:42.664Z,3.45
2023-08-12T23:59:09.610Z,3.70
